Terminal Aerodrome Forecast
Issued by NWS

Home | Current Version | Previous Version | Text Only | Print | Product List | Glossary On
Versions: 1 2 3 4 5 6 7 8 9 10 11 12 13 14 15 16 17 18 19 20 21 22 23 24 25 26
000
FTUS45 KVEF 211120
TAFLAS
TAF
KLAS 211120Z 2112/2218 02009G14KT P6SM FEW250
     FM211900 06007KT P6SM FEW250
     FM220000 VRB04KT P6SM SKC
     FM220400 23006KT P6SM SKC=

USA.gov is the U.S. government's official web portal to all federal, state and local government web resources and services.